createdAt,value
2023-05-11T00:02:05.898Z,8.43
2023-05-11T00:04:32.587Z,8.45
2023-05-11T00:06:59.235Z,8.45
2023-05-11T00:09:25.809Z,8.46
2023-05-11T00:11:54.087Z,8.48
2023-05-11T00:14:20.630Z,8.50
2023-05-11T00:16:47.212Z,8.53
2023-05-11T00:19:13.724Z,8.53
2023-05-11T00:21:40.277Z,8.49
2023-05-11T00:24:07.929Z,8.51
2023-05-11T00:26:34.476Z,8.49
2023-05-11T00:29:02.338Z,8.53
2023-05-11T00:31:30.427Z,8.50
2023-05-11T00:33:57.251Z,8.51
2023-05-11T00:36:23.805Z,8.51
2023-05-11T00:38:51.269Z,8.51
2023-05-11T00:41:17.790Z,8.52
2023-05-11T00:43:44.335Z,8.54
2023-05-11T00:46:12.251Z,8.55
2023-05-11T00:48:38.970Z,8.56
2023-05-11T00:51:06.223Z,8.57
2023-05-11T00:53:32.959Z,8.55
2023-05-11T00:55:59.532Z,8.55
2023-05-11T00:58:26.415Z,8.56
2023-05-11T01:00:52.918Z,8.56
2023-05-11T01:03:21.099Z,8.54
2023-05-11T01:05:52.777Z,8.56
2023-05-11T01:08:23.767Z,8.57
2023-05-11T01:10:58.611Z,8.57
2023-05-11T01:13:31.775Z,8.58
2023-05-11T01:15:58.423Z,8.56
2023-05-11T01:18:33.018Z,8.56
2023-05-11T01:21:01.243Z,8.55
2023-05-11T01:24:00.369Z,8.53
2023-05-11T01:26:37.001Z,8.50
2023-05-11T01:29:29.922Z,8.51
2023-05-11T01:31:59.824Z,8.49
2023-05-11T01:34:31.738Z,8.50
2023-05-11T01:37:05.137Z,8.49
2023-05-11T01:39:36.019Z,8.49
2023-05-11T01:42:06.864Z,8.47
2023-05-11T01:44:35.675Z,8.47
2023-05-11T01:47:05.197Z,8.48
2023-05-11T01:49:36.021Z,8.46
2023-05-11T01:52:04.166Z,8.44
2023-05-11T01:54:31.855Z,8.45
2023-05-11T01:57:00.581Z,8.42
2023-05-11T01:59:28.376Z,8.42
2023-05-11T02:01:56.323Z,8.41
2023-05-11T02:04:25.655Z,8.41
2023-05-11T02:06:53.243Z,8.39
2023-05-11T02:09:21.851Z,8.38
2023-05-11T02:11:49.667Z,8.39
2023-05-11T02:14:18.720Z,8.39
2023-05-11T02:16:47.862Z,8.39
2023-05-11T02:19:14.753Z,8.38
2023-05-11T02:21:44.680Z,8.40
2023-05-11T02:24:11.547Z,8.40
2023-05-11T02:26:38.171Z,8.39
2023-05-11T02:29:04.827Z,8.40
2023-05-11T02:31:36.348Z,8.43
2023-05-11T02:34:07.758Z,8.42
2023-05-11T02:36:38.070Z,8.43
2023-05-11T02:39:11.126Z,8.43
2023-05-11T02:41:43.178Z,8.44
2023-05-11T02:44:14.244Z,8.39
2023-05-11T02:46:42.498Z,8.40
2023-05-11T02:49:11.480Z,8.41
2023-05-11T02:51:41.105Z,8.41
2023-05-11T02:54:10.967Z,8.39
2023-05-11T02:56:38.355Z,8.37
2023-05-11T02:59:05.228Z,8.36
2023-05-11T03:01:32.159Z,8.35
2023-05-11T03:03:58.771Z,8.33
2023-05-11T03:06:25.547Z,8.31
2023-05-11T03:08:52.384Z,8.31
2023-05-11T03:11:21.440Z,8.32
2023-05-11T03:13:48.345Z,8.28
2023-05-11T03:16:17.439Z,8.27
2023-05-11T03:18:45.679Z,8.28
2023-05-11T03:21:15.868Z,8.27
2023-05-11T03:23:42.869Z,8.25
2023-05-11T03:26:11.914Z,8.25
2023-05-11T03:28:41.508Z,8.24
2023-05-11T03:31:08.317Z,8.24
2023-05-11T03:33:34.898Z,8.23
2023-05-11T03:36:04.423Z,8.20
2023-05-11T03:38:32.216Z,8.20
2023-05-11T03:41:02.870Z,8.19
2023-05-11T03:43:31.920Z,8.19
2023-05-11T03:46:01.181Z,8.20
2023-05-11T03:48:28.491Z,8.20
2023-05-11T03:50:55.623Z,8.19
2023-05-11T03:53:22.459Z,8.21
2023-05-11T03:55:49.100Z,8.24
2023-05-11T03:58:15.858Z,8.27
2023-05-11T04:00:42.945Z,8.29
2023-05-11T04:03:11.429Z,8.31
2023-05-11T04:05:38.067Z,8.32
2023-05-11T04:08:05.411Z,8.30
2023-05-11T04:10:32.186Z,8.31
2023-05-11T04:12:58.800Z,8.35
2023-05-11T04:15:25.402Z,8.34
2023-05-11T04:17:52.081Z,8.35
2023-05-11T04:20:20.152Z,8.39
2023-05-11T04:22:46.887Z,8.42
2023-05-11T04:25:13.471Z,8.44
2023-05-11T04:27:40.193Z,8.45
2023-05-11T04:30:08.528Z,8.48
2023-05-11T04:32:35.183Z,8.50
2023-05-11T04:35:01.882Z,8.53
2023-05-11T04:37:29.749Z,8.56
2023-05-11T04:39:56.657Z,8.56
2023-05-11T04:42:23.393Z,8.63
2023-05-11T04:44:52.993Z,8.71
2023-05-11T04:47:19.693Z,8.76
2023-05-11T04:49:46.145Z,8.82
2023-05-11T04:52:12.904Z,8.90
2023-05-11T04:54:40.800Z,8.99
2023-05-11T04:57:07.373Z,9.08
2023-05-11T04:59:34.043Z,9.10
2023-05-11T05:02:00.553Z,9.13
2023-05-11T05:04:27.073Z,9.13
2023-05-11T05:06:53.592Z,9.20
2023-05-11T05:09:20.131Z,9.23
2023-05-11T05:11:49.976Z,9.28
2023-05-11T05:14:16.567Z,9.30
2023-05-11T05:16:43.112Z,9.30
2023-05-11T05:19:09.604Z,9.32
2023-05-11T05:21:36.176Z,9.34
2023-05-11T05:24:02.749Z,9.36
2023-05-11T05:26:31.324Z,9.39
2023-05-11T05:28:59.238Z,9.30
2023-05-11T05:31:25.907Z,9.35
2023-05-11T05:33:52.533Z,9.34
2023-05-11T05:36:19.051Z,9.32
2023-05-11T05:38:45.554Z,9.37
2023-05-11T05:41:12.074Z,9.41
2023-05-11T05:43:38.531Z,9.40
2023-05-11T05:46:06.455Z,9.42
2023-05-11T05:48:32.943Z,9.46
2023-05-11T05:50:59.542Z,9.50
2023-05-11T05:53:26.070Z,9.54
2023-05-11T05:55:52.592Z,9.58
2023-05-11T05:58:19.145Z,9.56
2023-05-11T06:00:45.769Z,9.57
2023-05-11T06:03:13.647Z,9.60
2023-05-11T06:05:40.379Z,9.62
2023-05-11T06:08:11.106Z,9.67
2023-05-11T06:10:37.933Z,9.65
2023-05-11T06:13:04.836Z,9.70
2023-05-11T06:15:31.544Z,9.70
2023-05-11T06:17:58.102Z,9.71
2023-05-11T06:20:26.035Z,9.70
2023-05-11T06:22:52.573Z,9.69
2023-05-11T06:25:21.799Z,9.70
2023-05-11T06:27:48.323Z,9.73
2023-05-11T06:30:15.107Z,9.68
2023-05-11T06:32:41.661Z,9.68
2023-05-11T06:35:09.009Z,9.72
2023-05-11T06:37:36.916Z,9.69
2023-05-11T06:40:03.844Z,9.72
2023-05-11T06:42:30.416Z,9.77
2023-05-11T06:44:57.030Z,9.79
2023-05-11T06:47:23.722Z,9.85
2023-05-11T06:49:50.261Z,9.91
2023-05-11T06:52:16.762Z,9.94
2023-05-11T06:54:44.670Z,9.97
2023-05-11T06:57:12.717Z,10.12
2023-05-11T06:59:40.946Z,10.16
2023-05-11T07:02:07.454Z,10.15
2023-05-11T07:04:34.055Z,10.24
2023-05-11T07:07:00.703Z,10.37
2023-05-11T07:09:27.296Z,10.26
2023-05-11T07:11:55.855Z,10.40
2023-05-11T07:14:22.408Z,10.49
2023-05-11T07:16:49.096Z,10.53
2023-05-11T07:19:15.628Z,10.59
2023-05-11T07:21:42.203Z,10.62
2023-05-11T07:24:08.746Z,10.71
2023-05-11T07:26:35.445Z,10.72
2023-05-11T07:29:03.877Z,10.81
2023-05-11T07:31:30.686Z,10.88
2023-05-11T07:33:57.195Z,10.88
2023-05-11T07:36:23.944Z,10.89
2023-05-11T07:38:50.564Z,10.96
2023-05-11T07:41:17.214Z,11.10
2023-05-11T07:43:43.808Z,11.18
2023-05-11T07:46:11.688Z,11.12
2023-05-11T07:48:38.224Z,11.12
2023-05-11T07:51:05.108Z,11.23
2023-05-11T07:53:31.649Z,11.23
2023-05-11T07:55:58.177Z,11.23
2023-05-11T07:58:24.703Z,11.33
2023-05-11T08:00:51.287Z,11.57
2023-05-11T08:03:19.256Z,11.71
2023-05-11T08:05:45.926Z,11.74
2023-05-11T08:08:12.522Z,11.77
2023-05-11T08:10:39.055Z,11.76
2023-05-11T08:13:05.806Z,11.79
2023-05-11T08:15:32.310Z,11.75
2023-05-11T08:17:59.002Z,11.75
2023-05-11T08:20:26.960Z,11.89
2023-05-11T08:22:53.870Z,12.05
2023-05-11T08:25:20.501Z,12.16
2023-05-11T08:27:47.106Z,12.16
2023-05-11T08:30:14.397Z,12.21
2023-05-11T08:35:10.654Z,12.36
2023-05-11T08:37:39.072Z,12.35
2023-05-11T08:40:06.658Z,12.30
2023-05-11T08:42:34.096Z,12.42
2023-05-11T08:45:02.062Z,12.52
2023-05-11T08:47:29.054Z,12.57
2023-05-11T08:49:56.050Z,12.74
2023-05-11T08:52:22.605Z,12.63
2023-05-11T08:54:50.544Z,12.64
2023-05-11T08:57:17.742Z,12.64
2023-05-11T08:59:45.482Z,12.63
2023-05-11T09:02:16.120Z,12.63
2023-05-11T09:04:45.440Z,12.65
2023-05-11T09:07:15.570Z,12.66
2023-05-11T09:09:42.346Z,12.79
2023-05-11T09:12:10.931Z,12.91
2023-05-11T09:14:37.483Z,13.03
2023-05-11T09:17:04.557Z,13.21
2023-05-11T09:19:31.174Z,13.14
2023-05-11T09:21:59.399Z,13.12
2023-05-11T09:24:26.235Z,13.15
2023-05-11T09:27:06.530Z,13.37
2023-05-11T09:29:34.382Z,13.40
2023-05-11T09:32:01.081Z,13.45
2023-05-11T09:34:27.592Z,13.44
2023-05-11T09:36:55.560Z,13.62
2023-05-11T09:42:15.092Z,13.73
2023-05-11T09:44:43.483Z,13.76
2023-05-11T09:47:14.196Z,14.09
2023-05-11T09:49:41.039Z,14.16
2023-05-11T09:52:07.719Z,14.26
2023-05-11T09:54:40.772Z,14.24
2023-05-11T09:57:07.348Z,14.24
2023-05-11T09:59:38.617Z,14.29
2023-05-11T10:02:21.051Z,13.71
2023-05-11T10:04:47.711Z,13.75
2023-05-11T10:07:23.948Z,14.18
2023-05-11T10:09:51.794Z,14.33
2023-05-11T10:12:21.861Z,14.69
2023-05-11T10:14:51.035Z,14.78
2023-05-11T10:17:19.398Z,14.60
2023-05-11T10:19:46.530Z,14.59
2023-05-11T10:22:13.405Z,14.57
2023-05-11T10:24:40.451Z,14.46
2023-05-11T10:27:07.352Z,14.65
2023-05-11T10:29:34.000Z,14.79
2023-05-11T10:32:02.588Z,14.91
2023-05-11T10:34:32.061Z,14.66
2023-05-11T10:37:00.586Z,14.75
2023-05-11T10:39:28.261Z,14.92
2023-05-11T10:42:08.075Z,14.71
2023-05-11T10:45:10.544Z,14.97
2023-05-11T10:48:26.756Z,14.84
2023-05-11T10:51:24.989Z,15.25
2023-05-11T10:54:06.424Z,15.59
2023-05-11T10:56:47.561Z,15.75
2023-05-11T10:59:44.924Z,15.58
2023-05-11T11:02:11.642Z,15.32
2023-05-11T11:04:42.968Z,15.17
2023-05-11T11:07:10.889Z,15.42
2023-05-11T11:09:53.981Z,15.40
2023-05-11T11:12:21.339Z,15.57
2023-05-11T11:14:55.743Z,15.53
2023-05-11T11:17:23.657Z,15.70
2023-05-11T11:19:50.231Z,15.62
2023-05-11T11:22:45.521Z,15.63
2023-05-11T11:25:13.004Z,15.64
2023-05-11T11:27:58.586Z,15.42
2023-05-11T11:30:26.417Z,15.40
2023-05-11T11:32:54.696Z,15.33
2023-05-11T11:35:48.547Z,15.56
2023-05-11T11:38:18.398Z,15.84
2023-05-11T11:40:51.197Z,15.76
2023-05-11T11:43:20.849Z,15.41
2023-05-11T11:45:52.079Z,15.12
2023-05-11T11:48:23.180Z,14.77
2023-05-11T11:51:01.241Z,15.01
2023-05-11T11:54:04.167Z,15.11
2023-05-11T11:56:40.189Z,15.28
2023-05-11T11:59:06.833Z,15.66
2023-05-11T12:01:36.991Z,15.72
2023-05-11T12:04:46.447Z,16.05
2023-05-11T12:07:14.792Z,15.74
2023-05-11T12:09:41.513Z,15.48
2023-05-11T12:12:10.143Z,15.18
2023-05-11T12:14:36.702Z,14.99
2023-05-11T12:17:04.672Z,15.02
2023-05-11T12:19:31.363Z,14.67
2023-05-11T12:21:57.937Z,14.43
2023-05-11T12:24:24.540Z,14.37
2023-05-11T12:26:55.426Z,14.23
2023-05-11T12:29:23.446Z,14.16
2023-05-11T12:31:50.025Z,14.11
2023-05-11T12:34:17.574Z,13.97
2023-05-11T12:36:44.615Z,13.86
2023-05-11T12:39:16.859Z,13.73
2023-05-11T12:41:43.600Z,13.73
2023-05-11T12:44:10.438Z,13.70
2023-05-11T12:46:38.857Z,13.74
2023-05-11T12:49:05.583Z,13.48
2023-05-11T12:52:03.158Z,13.30
2023-05-11T12:54:32.553Z,13.23
2023-05-11T12:56:59.550Z,13.13
2023-05-11T12:59:28.335Z,13.11
2023-05-11T13:02:04.196Z,13.09
2023-05-11T13:04:31.418Z,13.20
2023-05-11T13:06:58.014Z,13.24
2023-05-11T13:09:25.100Z,13.32
2023-05-11T13:12:07.248Z,13.45
2023-05-11T13:14:33.832Z,13.65
2023-05-11T13:17:01.816Z,13.81
2023-05-11T13:19:29.727Z,14.08
2023-05-11T13:21:56.604Z,14.03
2023-05-11T13:24:23.967Z,14.14
2023-05-11T13:26:50.943Z,14.11
2023-05-11T13:29:17.583Z,13.98
2023-05-11T13:31:44.894Z,14.00
2023-05-11T13:34:13.207Z,14.26
2023-05-11T13:36:40.041Z,14.21
2023-05-11T13:39:07.086Z,13.97
2023-05-11T13:41:34.062Z,14.03
2023-05-11T13:44:00.695Z,14.06
2023-05-11T13:46:27.253Z,14.17
2023-05-11T13:48:53.743Z,14.31
2023-05-11T13:51:21.685Z,14.39
2023-05-11T13:53:48.306Z,14.40
2023-05-11T13:56:15.236Z,14.45
2023-05-11T13:58:41.801Z,14.40
2023-05-11T14:01:08.800Z,14.10
2023-05-11T14:03:35.533Z,14.08
2023-05-11T14:06:03.080Z,13.91
2023-05-11T14:08:30.904Z,13.79
2023-05-11T14:10:57.445Z,13.98
2023-05-11T14:13:24.022Z,13.95
2023-05-11T14:15:51.554Z,13.84
2023-05-11T14:18:18.285Z,13.57
2023-05-11T14:20:44.890Z,13.41
2023-05-11T14:23:11.420Z,13.27
2023-05-11T14:25:39.411Z,13.14
2023-05-11T14:28:05.921Z,13.10
2023-05-11T14:30:32.705Z,13.12
2023-05-11T14:32:59.360Z,13.11
2023-05-11T14:35:25.951Z,13.17
2023-05-11T14:37:52.537Z,13.09
2023-05-11T14:40:19.128Z,12.95
2023-05-11T14:42:47.054Z,12.96
2023-05-11T14:45:13.515Z,13.19
2023-05-11T14:47:40.111Z,13.34
2023-05-11T14:50:08.246Z,13.42
2023-05-11T14:52:34.771Z,13.57
2023-05-11T14:55:01.518Z,13.50
2023-05-11T14:57:28.161Z,13.32
2023-05-11T15:00:00.222Z,13.26
2023-05-11T15:02:28.530Z,13.29
2023-05-11T15:04:55.186Z,13.28
2023-05-11T15:07:21.819Z,13.30
2023-05-11T15:09:48.397Z,13.35
2023-05-11T15:12:14.969Z,13.44
2023-05-11T15:14:41.551Z,13.38
2023-05-11T15:17:09.474Z,13.14
2023-05-11T15:19:36.076Z,13.16
2023-05-11T15:22:02.659Z,12.96
2023-05-11T15:24:29.171Z,12.96
2023-05-11T15:26:55.696Z,12.88
2023-05-11T15:29:22.382Z,12.85
2023-05-11T15:31:48.971Z,12.85
2023-05-11T15:34:16.854Z,12.88
2023-05-11T15:36:44.508Z,12.82
2023-05-11T15:39:11.070Z,12.92
2023-05-11T15:41:37.635Z,12.86
2023-05-11T15:44:04.160Z,12.82
2023-05-11T15:46:30.766Z,12.78
2023-05-11T15:48:59.677Z,12.75
2023-05-11T15:51:28.082Z,12.68
2023-05-11T15:53:54.658Z,12.57
2023-05-11T15:56:21.234Z,12.57
2023-05-11T15:58:47.712Z,12.60
2023-05-11T16:01:14.319Z,12.59
2023-05-11T16:03:40.867Z,12.47
2023-05-11T16:06:07.790Z,12.56
2023-05-11T16:08:35.767Z,12.57
2023-05-11T16:11:02.278Z,12.48
2023-05-11T16:13:28.809Z,12.46
2023-05-11T16:15:55.421Z,12.45
2023-05-11T16:18:21.989Z,12.44
2023-05-11T16:20:48.612Z,12.42
2023-05-11T16:23:15.169Z,12.46
2023-05-11T16:25:43.060Z,12.38
2023-05-11T16:28:09.608Z,12.37
2023-05-11T16:30:36.243Z,12.35
2023-05-11T16:33:02.820Z,12.20
2023-05-11T16:35:29.473Z,12.18
2023-05-11T16:37:58.445Z,12.11
2023-05-11T16:40:25.059Z,12.00
2023-05-11T16:42:53.662Z,12.04
2023-05-11T16:45:20.169Z,12.08
2023-05-11T16:47:47.186Z,12.03
2023-05-11T16:50:13.822Z,12.00
2023-05-11T16:52:40.736Z,11.97
2023-05-11T16:55:07.985Z,11.93
2023-05-11T16:57:34.586Z,11.88
2023-05-11T17:00:02.620Z,11.95
2023-05-11T17:02:29.933Z,12.04
2023-05-11T17:04:56.481Z,11.95
2023-05-11T17:07:22.997Z,11.89
2023-05-11T17:09:49.525Z,11.94
2023-05-11T17:12:16.038Z,11.97
2023-05-11T17:14:42.568Z,11.94
2023-05-11T17:17:10.437Z,11.97
2023-05-11T17:19:37.001Z,11.87
2023-05-11T17:22:03.790Z,11.88
2023-05-11T17:24:30.498Z,11.90
2023-05-11T17:26:57.055Z,11.87
2023-05-11T17:29:24.680Z,11.81
2023-05-11T17:31:51.865Z,11.83
2023-05-11T17:34:22.153Z,11.84
2023-05-11T17:36:50.532Z,11.83
2023-05-11T17:39:17.094Z,11.81
2023-05-11T17:41:43.691Z,11.79
2023-05-11T17:44:10.221Z,11.77
2023-05-11T17:46:36.729Z,11.73
2023-05-11T17:49:03.304Z,11.73
2023-05-11T17:51:31.237Z,11.71
2023-05-11T17:53:57.769Z,11.72
2023-05-11T17:56:24.316Z,11.69
2023-05-11T17:58:51.006Z,11.66
2023-05-11T18:01:17.791Z,11.64
2023-05-11T18:03:45.131Z,11.61
2023-05-11T18:06:11.791Z,11.63
2023-05-11T18:08:39.629Z,11.62
2023-05-11T18:11:06.186Z,11.60
2023-05-11T18:13:32.839Z,11.56
2023-05-11T18:15:59.419Z,11.56
2023-05-11T18:18:26.203Z,11.59
2023-05-11T18:20:52.798Z,11.57
2023-05-11T18:23:20.312Z,11.54
2023-05-11T18:25:48.468Z,11.49
2023-05-11T18:28:15.055Z,11.49
2023-05-11T18:30:41.605Z,11.49
2023-05-11T18:33:08.311Z,11.48
2023-05-11T18:35:34.984Z,11.47
2023-05-11T18:38:01.572Z,11.50
2023-05-11T18:40:28.239Z,11.48
2023-05-11T18:42:56.080Z,11.47
2023-05-11T18:45:22.744Z,11.42
2023-05-11T18:47:49.428Z,11.42
2023-05-11T18:50:16.027Z,11.43
2023-05-11T18:52:42.510Z,11.43
2023-05-11T18:55:09.739Z,11.43
2023-05-11T18:57:36.260Z,11.45
2023-05-11T19:00:05.003Z,11.46
2023-05-11T19:02:31.597Z,11.45
2023-05-11T19:04:58.184Z,11.45
2023-05-11T19:07:24.722Z,11.43
2023-05-11T19:09:51.290Z,11.42
2023-05-11T19:12:17.799Z,11.40
2023-05-11T19:14:45.996Z,11.42
2023-05-11T19:17:15.146Z,11.40
2023-05-11T19:19:41.640Z,11.39
2023-05-11T19:22:09.248Z,11.39
2023-05-11T19:24:36.055Z,11.36
2023-05-11T19:27:07.400Z,11.35
2023-05-11T19:29:34.817Z,11.32
2023-05-11T19:32:01.632Z,11.29
2023-05-11T19:34:29.579Z,11.27
2023-05-11T19:36:56.179Z,11.27
2023-05-11T19:39:22.673Z,11.25
2023-05-11T19:41:49.173Z,11.23
2023-05-11T19:44:15.844Z,11.22
2023-05-11T19:46:42.385Z,11.18
2023-05-11T19:49:09.099Z,11.19
2023-05-11T19:51:36.921Z,11.16
2023-05-11T19:54:03.506Z,11.17
2023-05-11T19:56:30.031Z,11.14
2023-05-11T19:58:56.558Z,11.14
2023-05-11T20:01:23.153Z,11.14
2023-05-11T20:03:49.910Z,11.12
2023-05-11T20:06:16.626Z,11.10
2023-05-11T20:08:47.086Z,11.09
2023-05-11T20:11:15.088Z,11.07
2023-05-11T20:13:41.586Z,11.04
2023-05-11T20:16:08.179Z,10.99
2023-05-11T20:18:34.937Z,10.96
2023-05-11T20:21:01.510Z,10.93
2023-05-11T20:23:28.013Z,10.88
2023-05-11T20:25:55.916Z,10.85
2023-05-11T20:28:22.600Z,10.83
2023-05-11T20:30:49.075Z,10.80
2023-05-11T20:35:44.975Z,10.76
2023-05-11T20:38:11.518Z,10.75
2023-05-11T20:40:38.069Z,10.71
2023-05-11T20:43:06.105Z,10.67
2023-05-11T20:45:32.792Z,10.63
2023-05-11T20:47:59.403Z,10.60
2023-05-11T20:50:25.982Z,10.59
2023-05-11T20:52:52.456Z,10.59
2023-05-11T20:55:19.503Z,10.54
2023-05-11T20:57:46.270Z,10.50
2023-05-11T21:00:15.051Z,10.46
2023-05-11T21:02:41.951Z,10.41
2023-05-11T21:05:08.645Z,10.40
2023-05-11T21:07:35.203Z,10.35
2023-05-11T21:10:02.022Z,10.31
2023-05-11T21:12:28.593Z,10.27
2023-05-11T21:14:56.837Z,10.23
2023-05-11T21:17:25.154Z,10.19
2023-05-11T21:19:51.846Z,10.13
2023-05-11T21:22:18.327Z,10.06
2023-05-11T21:24:44.831Z,10.03
2023-05-11T21:27:11.316Z,10.01
2023-05-11T21:29:37.874Z,9.97
2023-05-11T21:32:05.326Z,9.91
2023-05-11T21:34:33.188Z,9.85
2023-05-11T21:36:59.796Z,9.80
2023-05-11T21:39:26.412Z,9.78
2023-05-11T21:41:53.414Z,9.76
2023-05-11T21:44:19.947Z,9.75
2023-05-11T21:46:46.524Z,9.69
2023-05-11T21:49:13.184Z,9.66
2023-05-11T21:51:41.070Z,9.61
2023-05-11T21:54:07.817Z,9.59
2023-05-11T21:56:34.301Z,9.57
2023-05-11T21:59:00.824Z,9.56
2023-05-11T22:01:27.386Z,9.54
2023-05-11T22:03:54.001Z,9.51
2023-05-11T22:06:20.555Z,9.50
2023-05-11T22:08:48.576Z,9.47
2023-05-11T22:11:15.104Z,9.44
2023-05-11T22:13:41.609Z,9.43
2023-05-11T22:16:08.243Z,9.44
2023-05-11T22:18:34.869Z,9.42
2023-05-11T22:21:01.429Z,9.42
2023-05-11T22:23:28.119Z,9.42
2023-05-11T22:25:55.971Z,9.44
2023-05-11T22:28:22.512Z,9.44
2023-05-11T22:30:49.024Z,9.47
2023-05-11T22:33:15.738Z,9.47
2023-05-11T22:35:42.439Z,9.49
2023-05-11T22:38:08.984Z,9.50
2023-05-11T22:40:35.496Z,9.49
2023-05-11T22:43:03.346Z,9.50
2023-05-11T22:45:29.990Z,9.47
2023-05-11T22:47:56.626Z,9.48
2023-05-11T22:50:23.136Z,9.47
2023-05-11T22:52:49.784Z,9.48
2023-05-11T22:55:16.453Z,9.49
2023-05-11T22:57:43.084Z,9.50
2023-05-11T23:00:12.460Z,9.50
2023-05-11T23:02:39.196Z,9.50
2023-05-11T23:05:06.596Z,9.50
2023-05-11T23:07:33.150Z,9.52
2023-05-11T23:09:59.660Z,9.53
2023-05-11T23:12:26.346Z,9.53
2023-05-11T23:14:52.829Z,9.54
2023-05-11T23:17:21.022Z,9.55
2023-05-11T23:19:47.758Z,9.55
2023-05-11T23:22:14.325Z,9.56
2023-05-11T23:24:40.998Z,9.56
2023-05-11T23:27:07.484Z,9.56
2023-05-11T23:29:34.307Z,9.55
2023-05-11T23:32:00.825Z,9.54
2023-05-11T23:34:28.900Z,9.55
2023-05-11T23:36:55.547Z,9.54
2023-05-11T23:39:22.037Z,9.56
2023-05-11T23:41:48.512Z,9.54
2023-05-11T23:44:15.081Z,9.53
2023-05-11T23:46:41.773Z,9.54
2023-05-11T23:49:08.423Z,9.56
2023-05-11T23:51:36.557Z,9.55
2023-05-11T23:54:03.337Z,9.54
2023-05-11T23:56:29.967Z,9.48
2023-05-11T23:58:56.638Z,9.47
